Time;durP1;ratioP1;P1;durP2;ratioP2;P2;SDS_P1;SDS_P2;PMS_P1;PMS_P2;Temp;Humidity;BMP_temperature;BMP_pressure;BME280_temperature;BME280_humidity;BME280_pressure;Samples;Min_cycle;Max_cycle;Signal;HPM_P1;HPM_P2
2023/08/30 00:00:45;;;;;;;8.20;5.67;;;14.80;99.90;;;;;;5008501;28;20302;-82
2023/08/30 00:03:12;;;;;;;12.27;5.93;;;14.90;99.90;;;;;;4999996;28;20253;-82
2023/08/30 00:05:40;;;;;;;8.37;5.17;;;14.80;99.90;;;;;;5001630;28;20211;-85
2023/08/30 00:08:10;;;;;;;7.30;5.33;;;14.80;99.90;;;;;;4986193;28;20542;-83
2023/08/30 00:10:38;;;;;;;8.40;5.40;;;14.80;99.90;;;;;;4990447;28;20206;-84
2023/08/30 00:13:07;;;;;;;9.90;6.00;;;14.80;99.90;;;;;;5020657;28;20221;-83
2023/08/30 00:15:35;;;;;;;10.00;5.77;;;14.90;99.90;;;;;;5006702;28;20215;-83
2023/08/30 00:18:02;;;;;;;8.57;5.70;;;14.90;99.90;;;;;;5006192;28;20211;-83
2023/08/30 00:20:33;;;;;;;8.27;5.30;;;14.90;99.90;;;;;;4990872;28;20230;-83
2023/08/30 00:23:01;;;;;;;8.27;5.23;;;14.80;99.90;;;;;;4997208;28;20199;-84
2023/08/30 00:25:29;;;;;;;10.27;5.37;;;15.00;99.90;;;;;;4991478;28;20218;-84
2023/08/30 00:27:58;;;;;;;6.20;4.63;;;15.00;99.90;;;;;;4997377;28;20219;-83
2023/08/30 00:30:32;;;;;;;7.97;5.73;;;15.00;99.90;;;;;;5002982;28;20242;-84
2023/08/30 00:32:59;;;;;;;8.97;5.10;;;15.00;99.90;;;;;;4999339;28;20231;-83
2023/08/30 00:35:27;;;;;;;11.83;5.73;;;15.00;99.90;;;;;;5000691;28;20286;-83
2023/08/30 00:37:54;;;;;;;10.43;5.27;;;15.10;99.90;;;;;;5003395;28;20207;-83
2023/08/30 00:40:24;;;;;;;7.43;5.07;;;15.10;99.90;;;;;;5001429;28;20231;-83
2023/08/30 00:42:52;;;;;;;7.50;5.10;;;15.10;99.90;;;;;;4995801;28;20211;-84
2023/08/30 00:45:19;;;;;;;7.23;5.20;;;15.20;99.90;;;;;;5001085;28;20208;-86
2023/08/30 00:47:47;;;;;;;8.13;4.93;;;15.20;99.90;;;;;;4999978;28;20667;-86
2023/08/30 00:50:17;;;;;;;7.97;4.97;;;15.20;99.90;;;;;;4999921;28;20231;-85
2023/08/30 00:52:44;;;;;;;7.30;4.60;;;15.20;99.90;;;;;;5000198;28;20218;-85
2023/08/30 00:55:15;;;;;;;7.17;5.20;;;15.30;99.90;;;;;;5015635;28;20203;-82
2023/08/30 00:57:42;;;;;;;5.83;4.60;;;15.30;99.90;;;;;;5001176;28;20214;-84
2023/08/30 01:00:10;;;;;;;7.60;4.80;;;15.20;99.90;;;;;;5008856;28;20281;-85
2023/08/30 01:02:37;;;;;;;6.73;4.83;;;15.30;99.90;;;;;;5010456;28;20231;-83
2023/08/30 01:05:04;;;;;;;8.20;5.20;;;15.30;99.90;;;;;;5003270;28;20635;-83
2023/08/30 01:07:31;;;;;;;6.63;4.70;;;15.40;99.90;;;;;;5003543;28;20211;-83
2023/08/30 01:10:00;;;;;;;7.93;4.70;;;15.40;99.90;;;;;;4995587;28;20207;-84
2023/08/30 01:12:36;;;;;;;5.53;4.10;;;15.40;99.90;;;;;;5006257;28;20215;-83
2023/08/30 01:15:19;;;;;;;6.00;4.23;;;15.40;99.90;;;;;;5003451;28;20199;-83
2023/08/30 01:17:52;;;;;;;7.83;4.67;;;15.30;99.90;;;;;;5003514;28;20222;-84
2023/08/30 01:20:22;;;;;;;8.07;4.47;;;15.40;99.90;;;;;;5001583;28;20558;-84
2023/08/30 01:23:10;;;;;;;5.93;4.37;;;15.40;99.90;;;;;;5005781;28;20199;-85
2023/08/30 01:25:43;;;;;;;6.73;4.73;;;15.40;99.90;;;;;;5002801;28;20204;-84
2023/08/30 01:28:11;;;;;;;5.97;4.23;;;15.40;99.90;;;;;;5003536;28;20202;-83
2023/08/30 01:30:41;;;;;;;5.57;4.27;;;15.40;99.90;;;;;;5000015;28;20741;-83
2023/08/30 01:33:11;;;;;;;7.00;4.50;;;15.40;99.90;;;;;;5002735;28;20203;-82
2023/08/30 01:35:41;;;;;;;7.03;4.93;;;15.40;99.90;;;;;;4991785;28;20211;-83
2023/08/30 01:38:08;;;;;;;8.03;4.67;;;15.30;99.90;;;;;;5013155;28;20215;-83
2023/08/30 01:40:43;;;;;;;6.13;4.43;;;15.30;99.90;;;;;;5000306;28;20289;-85
2023/08/30 01:43:11;;;;;;;7.60;4.70;;;15.30;99.90;;;;;;4993006;28;20203;-84
2023/08/30 01:45:43;;;;;;;6.40;4.87;;;15.30;99.90;;;;;;4998263;28;20251;-83
2023/08/30 01:48:14;;;;;;;7.87;5.70;;;15.20;99.90;;;;;;4981526;28;20207;-84
2023/08/30 01:50:45;;;;;;;8.30;5.50;;;15.20;99.90;;;;;;4981797;28;20206;-85
2023/08/30 01:53:14;;;;;;;8.50;5.80;;;15.20;99.90;;;;;;4997001;28;20209;-84
2023/08/30 01:55:43;;;;;;;6.77;5.37;;;15.10;99.90;;;;;;4985856;28;20222;-83
2023/08/30 01:58:16;;;;;;;9.63;6.20;;;15.10;99.90;;;;;;4990703;28;20217;-83
2023/08/30 02:00:43;;;;;;;9.07;4.93;;;15.20;99.90;;;;;;4996559;28;20238;-84
2023/08/30 02:03:11;;;;;;;8.27;5.20;;;15.10;99.90;;;;;;4993224;28;20235;-86
2023/08/30 02:06:06;;;;;;;8.90;4.93;;;15.20;99.90;;;;;;5000206;28;20199;-85
2023/08/30 02:09:07;;;;;;;9.47;5.40;;;15.20;99.90;;;;;;4998445;28;20235;-84
2023/08/30 02:11:37;;;;;;;8.30;5.50;;;15.20;99.90;;;;;;4997996;28;20207;-82
2023/08/30 02:14:08;;;;;;;6.23;4.97;;;15.20;99.90;;;;;;4993915;28;20303;-84
2023/08/30 02:16:36;;;;;;;8.53;5.70;;;15.20;99.90;;;;;;4992814;28;20686;-84
2023/08/30 02:19:04;;;;;;;7.67;5.57;;;15.10;99.90;;;;;;4991126;28;20285;-84
2023/08/30 02:21:31;;;;;;;6.70;4.97;;;15.10;99.90;;;;;;4998689;28;20227;-85
2023/08/30 02:23:58;;;;;;;8.57;5.17;;;15.00;99.90;;;;;;5001745;28;20230;-85
2023/08/30 02:26:25;;;;;;;6.93;5.03;;;15.10;99.90;;;;;;4988159;28;20275;-84
2023/08/30 02:28:52;;;;;;;8.77;5.30;;;15.10;99.90;;;;;;5004944;28;20762;-85
2023/08/30 02:31:18;;;;;;;7.07;5.50;;;15.10;99.90;;;;;;5003572;28;21018;-83
2023/08/30 02:33:45;;;;;;;6.37;4.87;;;15.10;99.90;;;;;;4993638;28;20207;-85
2023/08/30 02:36:12;;;;;;;6.57;4.73;;;15.10;99.90;;;;;;4999430;28;20215;-83
2023/08/30 02:38:39;;;;;;;7.70;4.57;;;15.00;99.90;;;;;;5001926;28;20282;-85
2023/08/30 02:41:07;;;;;;;7.53;5.27;;;15.10;99.90;;;;;;5000066;28;20230;-85
2023/08/30 02:43:34;;;;;;;6.33;4.80;;;15.10;99.90;;;;;;5000140;28;20207;-85
2023/08/30 02:46:03;;;;;;;7.80;5.03;;;15.00;99.90;;;;;;5004805;28;20233;-83
2023/08/30 02:48:30;;;;;;;7.80;5.10;;;15.10;99.90;;;;;;5003295;28;20694;-84
2023/08/30 02:50:57;;;;;;;6.87;4.70;;;15.20;99.90;;;;;;5005500;28;20210;-84
2023/08/30 02:53:26;;;;;;;8.20;4.97;;;15.10;99.90;;;;;;5006675;28;20219;-85
2023/08/30 02:55:55;;;;;;;8.17;5.13;;;15.20;99.90;;;;;;5003165;28;20265;-84
2023/08/30 02:58:23;;;;;;;8.53;4.77;;;15.10;99.90;;;;;;5005824;28;20267;-83
2023/08/30 03:00:50;;;;;;;8.60;5.53;;;15.10;99.90;;;;;;5008776;28;20246;-86
2023/08/30 03:03:17;;;;;;;7.33;4.80;;;15.10;99.90;;;;;;5007809;28;20231;-84
2023/08/30 03:05:44;;;;;;;8.60;5.67;;;15.10;99.90;;;;;;5007042;28;20199;-84
2023/08/30 03:08:13;;;;;;;8.10;4.70;;;15.10;99.90;;;;;;5001405;28;20203;-83
2023/08/30 03:10:40;;;;;;;9.77;6.00;;;15.10;99.90;;;;;;5004462;28;20230;-87
2023/08/30 03:13:07;;;;;;;7.60;5.07;;;15.10;99.90;;;;;;5009455;28;20211;-84
2023/08/30 03:15:37;;;;;;;8.43;5.93;;;15.10;99.90;;;;;;5008185;28;20246;-84
2023/08/30 03:18:07;;;;;;;8.87;5.47;;;15.10;99.90;;;;;;5007924;28;20660;-85
2023/08/30 03:20:35;;;;;;;8.77;5.63;;;15.20;99.90;;;;;;5004991;28;20262;-85
2023/08/30 03:23:02;;;;;;;9.93;5.70;;;15.20;99.90;;;;;;5012958;28;20207;-84
2023/08/30 03:25:30;;;;;;;9.13;6.03;;;15.10;99.90;;;;;;5004381;28;20211;-84
2023/08/30 03:27:57;;;;;;;11.07;5.83;;;15.20;99.90;;;;;;4996043;28;20254;-86
2023/08/30 03:30:24;;;;;;;8.67;5.53;;;15.30;99.90;;;;;;5000647;28;20329;-85
2023/08/30 03:32:51;;;;;;;9.17;5.47;;;15.30;99.90;;;;;;4990119;28;20228;-84
2023/08/30 03:35:21;;;;;;;10.30;5.93;;;15.20;99.90;;;;;;4998985;28;20291;-83
2023/08/30 03:37:48;;;;;;;9.80;5.23;;;15.20;99.90;;;;;;5017772;28;20234;-83
2023/08/30 03:40:15;;;;;;;8.50;5.33;;;15.20;99.90;;;;;;4996921;28;20215;-83
2023/08/30 03:42:43;;;;;;;8.03;5.23;;;15.20;99.90;;;;;;5003452;28;20207;-82
2023/08/30 03:45:10;;;;;;;9.50;5.33;;;15.30;99.90;;;;;;4998710;28;20214;-84
2023/08/30 03:47:38;;;;;;;7.60;5.30;;;15.20;99.90;;;;;;5004558;28;20234;-85
2023/08/30 03:50:07;;;;;;;8.23;5.53;;;15.20;99.90;;;;;;5005269;28;20271;-82
2023/08/30 03:52:34;;;;;;;9.33;5.50;;;15.10;99.90;;;;;;5007705;28;20307;-83
2023/08/30 03:55:01;;;;;;;9.30;5.10;;;15.10;99.90;;;;;;5013326;28;20203;-86
2023/08/30 03:57:29;;;;;;;10.53;5.63;;;15.10;99.90;;;;;;4996155;28;20199;-84
2023/08/30 03:59:56;;;;;;;12.00;5.97;;;15.10;99.90;;;;;;5008378;28;20585;-84
2023/08/30 04:02:23;;;;;;;11.87;6.30;;;15.10;99.90;;;;;;5007318;28;20239;-84
2023/08/30 04:04:50;;;;;;;10.20;6.10;;;15.10;99.90;;;;;;5006634;28;20218;-84
2023/08/30 04:07:17;;;;;;;11.37;6.40;;;15.10;99.90;;;;;;5001038;28;20199;-84
2023/08/30 04:09:44;;;;;;;9.20;5.57;;;15.10;99.90;;;;;;5005388;28;20217;-83
2023/08/30 04:12:11;;;;;;;7.90;5.40;;;15.20;99.90;;;;;;5003483;28;20191;-84
2023/08/30 04:14:38;;;;;;;9.80;5.80;;;15.10;99.90;;;;;;4996089;28;20200;-84
2023/08/30 04:17:07;;;;;;;10.03;5.83;;;15.10;99.90;;;;;;4994277;28;20279;-84
2023/08/30 04:19:36;;;;;;;10.77;6.50;;;15.10;99.90;;;;;;5002184;28;20305;-83
2023/08/30 04:22:03;;;;;;;9.47;6.03;;;15.10;99.90;;;;;;5001908;28;20235;-83
2023/08/30 04:24:31;;;;;;;9.17;5.40;;;15.10;99.90;;;;;;4989179;28;20260;-84
2023/08/30 04:26:58;;;;;;;9.43;5.33;;;15.10;99.90;;;;;;5005044;28;20203;-83
2023/08/30 04:29:25;;;;;;;7.90;5.30;;;15.10;99.90;;;;;;5003314;28;20214;-82
2023/08/30 04:31:51;;;;;;;13.20;5.77;;;15.10;99.90;;;;;;5001766;28;20247;-83
2023/08/30 04:34:18;;;;;;;10.27;6.27;;;15.10;99.90;;;;;;5003272;28;20223;-85
2023/08/30 04:36:45;;;;;;;10.13;6.23;;;15.10;99.90;;;;;;5006032;28;20229;-84
2023/08/30 04:39:13;;;;;;;11.83;6.23;;;15.00;99.90;;;;;;5007071;28;20207;-84
2023/08/30 04:41:44;;;;;;;10.33;6.23;;;15.00;99.90;;;;;;4997348;28;20215;-84
2023/08/30 04:44:11;;;;;;;9.47;6.23;;;14.90;99.90;;;;;;5011636;28;20219;-82
2023/08/30 04:46:42;;;;;;;11.77;6.40;;;15.00;99.90;;;;;;5012506;28;20229;-84
2023/08/30 04:49:12;;;;;;;11.53;6.30;;;14.90;99.90;;;;;;5012623;28;20663;-83
2023/08/30 04:51:39;;;;;;;9.87;5.77;;;14.90;99.90;;;;;;5011768;28;20197;-84
2023/08/30 04:54:06;;;;;;;11.27;6.43;;;14.80;99.90;;;;;;4997910;28;20219;-83
2023/08/30 04:56:33;;;;;;;8.77;5.73;;;14.80;99.90;;;;;;5010929;28;20258;-84
2023/08/30 04:59:03;;;;;;;9.83;6.03;;;14.80;99.90;;;;;;5007874;28;20391;-84
2023/08/30 05:01:30;;;;;;;9.27;6.20;;;14.80;99.90;;;;;;5010849;28;20303;-84
2023/08/30 05:03:57;;;;;;;10.87;7.03;;;14.80;99.90;;;;;;5012146;28;20235;-83
2023/08/30 05:06:27;;;;;;;10.07;6.00;;;14.80;99.90;;;;;;5027839;28;20242;-84
2023/08/30 05:08:54;;;;;;;9.43;6.07;;;14.80;99.90;;;;;;5012951;28;20230;-83
2023/08/30 05:11:22;;;;;;;12.43;7.20;;;14.70;99.90;;;;;;5010888;28;20200;-85
2023/08/30 05:13:50;;;;;;;11.50;5.93;;;14.60;99.90;;;;;;5014067;28;20203;-83
2023/08/30 05:16:17;;;;;;;10.87;6.83;;;14.60;99.90;;;;;;5000339;28;20222;-86
2023/08/30 05:18:47;;;;;;;13.03;7.27;;;14.60;99.90;;;;;;4999177;28;20207;-85
2023/08/30 05:21:14;;;;;;;12.23;6.53;;;14.60;99.90;;;;;;5001616;28;20222;-84
2023/08/30 05:23:49;;;;;;;10.30;6.37;;;14.50;99.90;;;;;;5003550;28;20203;-82
2023/08/30 05:26:19;;;;;;;10.43;6.60;;;14.50;99.90;;;;;;4999700;28;20218;-83
2023/08/30 05:28:55;;;;;;;11.07;6.63;;;14.40;99.90;;;;;;5012964;28;20785;-83
2023/08/30 05:31:23;;;;;;;9.90;6.27;;;14.40;99.90;;;;;;5011990;28;20223;-83
2023/08/30 05:33:58;;;;;;;11.27;6.60;;;14.40;99.90;;;;;;4993275;28;20204;-82
2023/08/30 05:36:27;;;;;;;12.63;7.27;;;14.40;99.90;;;;;;4999999;28;20231;-83
2023/08/30 05:38:56;;;;;;;10.47;6.87;;;14.40;99.90;;;;;;5002070;28;20365;-83
2023/08/30 05:41:25;;;;;;;11.40;7.00;;;14.40;99.90;;;;;;5018043;28;20568;-85
2023/08/30 05:43:55;;;;;;;11.20;6.77;;;14.50;99.90;;;;;;5013061;28;20337;-82
2023/08/30 05:46:22;;;;;;;10.93;6.90;;;14.50;99.90;;;;;;4998891;28;20247;-83
2023/08/30 05:48:54;;;;;;;12.47;7.20;;;14.50;99.90;;;;;;5001798;28;20188;-82
2023/08/30 05:51:24;;;;;;;12.27;6.90;;;14.60;99.90;;;;;;4993584;28;20199;-82
2023/08/30 05:53:51;;;;;;;14.27;7.33;;;14.60;99.90;;;;;;5005414;28;20275;-83
2023/08/30 05:56:26;;;;;;;11.60;6.80;;;14.70;99.90;;;;;;5011946;28;20270;-84
2023/08/30 05:58:54;;;;;;;10.10;6.47;;;14.80;99.90;;;;;;5000689;28;20287;-85
2023/08/30 06:01:28;;;;;;;13.10;7.17;;;14.80;99.90;;;;;;5026539;28;20238;-86
2023/08/30 06:03:55;;;;;;;9.83;6.60;;;14.80;99.90;;;;;;5001898;28;20216;-82
2023/08/30 06:06:21;;;;;;;12.77;7.53;;;14.80;99.90;;;;;;5001936;28;20199;-82
2023/08/30 06:08:53;;;;;;;12.90;6.80;;;15.00;99.90;;;;;;5005315;28;20226;-83
2023/08/30 06:11:28;;;;;;;11.90;7.20;;;15.00;99.90;;;;;;4995920;28;20208;-81
2023/08/30 06:13:59;;;;;;;12.20;7.17;;;15.10;99.90;;;;;;5000743;28;20223;-85
2023/08/30 06:16:25;;;;;;;11.67;6.83;;;15.10;99.90;;;;;;5005312;28;20314;-83
2023/08/30 06:18:52;;;;;;;12.50;7.23;;;15.20;99.90;;;;;;5005697;28;20207;-82
2023/08/30 06:21:35;;;;;;;12.65;7.10;;;15.30;99.90;;;;;;5004600;28;20234;-83
2023/08/30 06:24:04;;;;;;;9.63;5.97;;;15.40;99.90;;;;;;5007806;28;20207;-84
2023/08/30 06:26:33;;;;;;;11.33;6.70;;;15.40;99.90;;;;;;5008389;28;20215;-83
2023/08/30 06:29:00;;;;;;;12.93;7.27;;;15.50;99.90;;;;;;5008559;28;20246;-81
2023/08/30 06:31:32;;;;;;;11.07;6.22;;;15.90;99.90;;;;;;5009279;28;20234;-83
2023/08/30 06:34:00;;;;;;;12.85;7.55;;;16.10;99.90;;;;;;4995288;28;20212;-86
2023/08/30 06:36:27;;;;;;;10.35;6.55;;;16.30;99.90;;;;;;4996761;28;20195;-83
2023/08/30 06:38:54;;;;;;;10.93;6.60;;;16.70;99.90;;;;;;4993809;28;20506;-81
2023/08/30 06:41:27;;;;;;;11.63;6.63;;;16.70;99.90;;;;;;4994164;28;20302;-82
2023/08/30 06:43:54;;;;;;;12.80;7.10;;;16.80;99.90;;;;;;4995308;28;20262;-82
2023/08/30 06:46:21;;;;;;;13.20;6.20;;;16.80;99.90;;;;;;4991967;28;20257;-83
2023/08/30 06:48:48;;;;;;;10.15;6.45;;;16.70;99.90;;;;;;4991676;28;20203;-82
2023/08/30 06:51:15;;;;;;;11.95;6.97;;;16.90;99.90;;;;;;4991749;28;20747;-82
2023/08/30 06:53:44;;;;;;;14.57;7.03;;;16.80;99.90;;;;;;4991130;28;20590;-81
2023/08/30 06:56:10;;;;;;;9.52;6.47;;;16.90;99.90;;;;;;4990621;28;20211;-82
2023/08/30 06:58:37;;;;;;;11.65;6.63;;;17.10;99.90;;;;;;4989959;28;20277;-81
2023/08/30 07:01:06;;;;;;;10.23;6.30;;;17.10;99.90;;;;;;4978922;28;20243;-80
2023/08/30 07:03:33;;;;;;;8.88;5.97;;;17.20;99.90;;;;;;4989890;28;20536;-80
2023/08/30 07:06:00;;;;;;;10.63;6.55;;;17.20;99.90;;;;;;4991246;28;20290;-82
2023/08/30 07:08:27;;;;;;;10.73;6.50;;;17.20;99.90;;;;;;4989555;28;20699;-81
2023/08/30 07:10:54;;;;;;;9.40;6.22;;;17.20;99.90;;;;;;4990661;28;20258;-81
2023/08/30 07:13:28;;;;;;;9.40;5.78;;;17.30;99.90;;;;;;4992290;28;20289;-80
2023/08/30 07:15:56;;;;;;;10.05;5.90;;;17.20;99.90;;;;;;4991421;28;20230;-84
2023/08/30 07:18:23;;;;;;;10.45;6.50;;;17.20;99.90;;;;;;4991664;28;20288;-83
2023/08/30 07:20:50;;;;;;;10.00;6.65;;;17.10;99.90;;;;;;4992453;28;20266;-82
2023/08/30 07:23:16;;;;;;;11.65;6.65;;;17.10;99.90;;;;;;4991677;28;20211;-82
2023/08/30 07:25:43;;;;;;;10.77;6.82;;;17.00;99.90;;;;;;4990153;28;20218;-81
2023/08/30 07:28:11;;;;;;;12.57;6.72;;;16.90;99.90;;;;;;4990767;28;20268;-81
2023/08/30 07:30:38;;;;;;;12.18;6.53;;;16.90;99.90;;;;;;4990856;28;20239;-81
2023/08/30 07:33:05;;;;;;;10.15;6.50;;;16.70;99.90;;;;;;4991397;28;20523;-82
2023/08/30 07:35:35;;;;;;;10.95;6.75;;;16.70;99.90;;;;;;4991704;28;20204;-81
2023/08/30 07:38:02;;;;;;;14.40;7.15;;;16.60;99.90;;;;;;4994088;28;20250;-79
2023/08/30 07:40:29;;;;;;;12.95;6.57;;;16.50;99.90;;;;;;4994982;28;20295;-82
2023/08/30 07:42:56;;;;;;;12.40;7.10;;;16.40;99.90;;;;;;4996256;28;20246;-81
2023/08/30 07:45:30;;;;;;;12.35;7.57;;;16.30;99.90;;;;;;4997251;28;20575;-83
2023/08/30 07:47:57;;;;;;;10.40;6.90;;;16.20;99.90;;;;;;4996243;28;20207;-79
2023/08/30 07:50:24;;;;;;;13.25;7.45;;;16.10;99.90;;;;;;4995456;28;20428;-81
2023/08/30 07:52:51;;;;;;;13.20;8.27;;;16.00;99.90;;;;;;4995091;28;20270;-80
2023/08/30 07:55:17;;;;;;;15.27;8.17;;;15.80;99.90;;;;;;4995812;28;20211;-80
2023/08/30 07:57:44;;;;;;;13.97;8.07;;;15.70;99.90;;;;;;4995365;28;20199;-81
2023/08/30 08:00:12;;;;;;;13.67;8.17;;;15.60;99.90;;;;;;4994225;28;20210;-80
2023/08/30 08:02:40;;;;;;;10.87;7.60;;;15.50;99.90;;;;;;4989746;28;20247;-81
2023/08/30 08:05:07;;;;;;;15.50;8.47;;;15.40;99.90;;;;;;4993319;28;20215;-80
2023/08/30 08:07:40;;;;;;;14.67;8.43;;;15.30;99.90;;;;;;4993148;28;20207;-81
2023/08/30 08:10:07;;;;;;;14.37;8.80;;;15.20;99.90;;;;;;4991120;28;20199;-81
2023/08/30 08:12:37;;;;;;;12.87;8.13;;;15.10;99.90;;;;;;4990470;28;20207;-80
2023/08/30 08:15:04;;;;;;;14.70;8.23;;;15.00;99.90;;;;;;4990679;28;20672;-80
2023/08/30 08:17:31;;;;;;;13.73;8.47;;;15.00;99.90;;;;;;4991567;28;20227;-80
2023/08/30 08:19:57;;;;;;;12.93;7.87;;;15.00;99.90;;;;;;4993990;28;20217;-80
2023/08/30 08:22:24;;;;;;;15.67;8.80;;;15.00;99.90;;;;;;4992416;28;20261;-80
2023/08/30 08:24:53;;;;;;;14.90;8.60;;;14.90;99.90;;;;;;4990862;28;20206;-80
2023/08/30 08:27:20;;;;;;;20.87;9.60;;;14.90;99.90;;;;;;4992780;28;20207;-81
2023/08/30 08:29:47;;;;;;;13.97;8.93;;;14.90;99.90;;;;;;4991736;28;20211;-80
2023/08/30 08:32:14;;;;;;;16.13;8.57;;;14.90;99.90;;;;;;4991868;28;20227;-81
2023/08/30 08:34:41;;;;;;;14.93;7.83;;;15.00;99.90;;;;;;4990211;28;20449;-80
2023/08/30 08:37:08;;;;;;;13.67;8.17;;;15.00;99.90;;;;;;4990603;28;20211;-81
2023/08/30 08:39:36;;;;;;;17.13;8.93;;;15.00;99.90;;;;;;4990606;28;20291;-81
2023/08/30 08:42:04;;;;;;;13.37;8.17;;;15.00;99.90;;;;;;4988982;28;20234;-81
2023/08/30 08:44:32;;;;;;;13.90;7.50;;;14.90;99.90;;;;;;4990641;28;20215;-81
2023/08/30 08:47:00;;;;;;;16.53;8.33;;;15.00;99.90;;;;;;4991011;28;20230;-79
2023/08/30 08:49:29;;;;;;;13.43;8.67;;;15.00;99.90;;;;;;4991897;28;20291;-82
2023/08/30 08:51:56;;;;;;;16.07;8.73;;;15.10;99.90;;;;;;4991175;28;20221;-81
2023/08/30 08:54:23;;;;;;;13.97;7.43;;;15.20;99.90;;;;;;4991946;28;20215;-81
2023/08/30 08:56:50;;;;;;;14.27;8.07;;;15.20;99.90;;;;;;4994043;28;20204;-81
2023/08/30 08:59:18;;;;;;;14.37;7.83;;;15.20;99.90;;;;;;4992637;28;20203;-81
2023/08/30 09:01:45;;;;;;;13.83;8.13;;;15.30;99.90;;;;;;4993640;28;20692;-79
2023/08/30 09:04:12;;;;;;;15.17;7.90;;;15.30;99.90;;;;;;4991537;28;20281;-81
2023/08/30 09:06:40;;;;;;;12.33;8.20;;;15.40;99.90;;;;;;4992448;28;20215;-81
2023/08/30 09:09:08;;;;;;;14.43;6.90;;;15.50;99.90;;;;;;4992743;28;20295;-79
2023/08/30 09:11:36;;;;;;;12.10;7.03;;;15.50;99.90;;;;;;4992688;28;20222;-82
2023/08/30 09:14:17;;;;;;;14.17;7.43;;;15.70;99.90;;;;;;4991375;28;20574;-81
2023/08/30 09:16:58;;;;;;;13.83;7.20;;;15.70;99.90;;;;;;4990649;28;20227;-81
2023/08/30 09:19:25;;;;;;;11.90;6.80;;;15.80;99.90;;;;;;4989911;28;20216;-85
2023/08/30 09:21:56;;;;;;;10.07;6.45;;;15.90;99.90;;;;;;4991749;28;20222;-80
2023/08/30 09:24:23;;;;;;;10.23;6.63;;;16.00;99.90;;;;;;4994209;28;20222;-83
2023/08/30 09:26:52;;;;;;;8.60;5.53;;;16.10;99.90;;;;;;4995540;28;20758;-81
2023/08/30 09:29:25;;;;;;;8.68;5.85;;;16.10;99.90;;;;;;4995423;28;20204;-80
2023/08/30 09:31:55;;;;;;;9.02;5.55;;;16.10;99.90;;;;;;4995721;28;20277;-82
2023/08/30 09:34:25;;;;;;;8.80;5.80;;;16.10;99.90;;;;;;4995113;28;20218;-81
2023/08/30 09:36:53;;;;;;;9.20;5.80;;;16.10;99.90;;;;;;4994861;28;20534;-81
2023/08/30 09:39:20;;;;;;;9.25;5.47;;;16.20;99.90;;;;;;4996118;28;20661;-82
2023/08/30 09:41:49;;;;;;;10.63;6.37;;;16.20;99.90;;;;;;4995401;28;20234;-83
2023/08/30 09:44:17;;;;;;;8.80;5.82;;;16.20;99.90;;;;;;4994532;28;20215;-82
2023/08/30 09:46:51;;;;;;;9.70;5.83;;;16.20;99.90;;;;;;4995284;28;20215;-81
2023/08/30 09:49:22;;;;;;;8.30;5.05;;;16.10;99.90;;;;;;4994837;28;20295;-81
2023/08/30 09:51:51;;;;;;;9.27;5.93;;;16.10;99.90;;;;;;4994838;28;20302;-79
2023/08/30 09:54:41;;;;;;;9.68;6.03;;;16.10;99.90;;;;;;4993682;28;20215;-80
2023/08/30 09:57:09;;;;;;;10.17;6.10;;;16.00;99.90;;;;;;4995008;28;20207;-82
2023/08/30 09:59:38;;;;;;;10.17;6.27;;;16.00;99.90;;;;;;4994409;28;20222;-83
2023/08/30 10:02:07;;;;;;;7.40;5.00;;;16.00;99.90;;;;;;4984022;28;20534;-81
2023/08/30 10:04:37;;;;;;;10.43;6.25;;;16.00;99.90;;;;;;4993524;28;20234;-83
2023/08/30 10:07:05;;;;;;;8.35;5.65;;;16.00;99.90;;;;;;4994378;28;20536;-81
2023/08/30 10:09:32;;;;;;;9.53;5.90;;;16.10;99.90;;;;;;4995429;28;20218;-83
2023/08/30 10:12:01;;;;;;;8.43;5.87;;;16.10;99.90;;;;;;4980887;28;20227;-80
2023/08/30 10:14:28;;;;;;;8.02;5.47;;;16.10;99.90;;;;;;4993410;28;20207;-81
2023/08/30 10:17:07;;;;;;;9.20;6.27;;;16.10;99.90;;;;;;4994806;28;20314;-82
2023/08/30 10:19:37;;;;;;;10.20;6.05;;;16.10;99.90;;;;;;4978699;28;20211;-85
2023/08/30 10:22:08;;;;;;;8.82;5.78;;;16.20;99.90;;;;;;4994627;28;20234;-81
2023/08/30 10:24:46;;;;;;;8.10;5.45;;;16.20;99.90;;;;;;4986532;28;20552;-82
2023/08/30 10:27:34;;;;;;;8.00;6.00;;;16.20;99.90;;;;;;4993448;28;20230;-83
2023/08/30 10:30:03;;;;;;;11.48;6.47;;;16.20;99.90;;;;;;4992834;28;20211;-80
2023/08/30 10:32:31;;;;;;;8.95;6.75;;;16.30;99.90;;;;;;4993152;28;20223;-81
2023/08/30 10:35:02;;;;;;;10.68;6.55;;;16.20;99.90;;;;;;4991269;28;20579;-80
2023/08/30 10:37:30;;;;;;;8.98;6.63;;;16.30;99.90;;;;;;4991724;28;20195;-81
2023/08/30 10:40:04;;;;;;;10.00;5.85;;;16.40;99.90;;;;;;4993741;28;20703;-80
2023/08/30 10:42:32;;;;;;;8.18;5.85;;;16.40;99.90;;;;;;4993652;28;20571;-81
2023/08/30 10:45:07;;;;;;;7.25;5.70;;;16.40;99.90;;;;;;4993190;28;20211;-80
2023/08/30 10:47:38;;;;;;;8.80;6.07;;;16.40;99.90;;;;;;4993318;28;20644;-80
2023/08/30 10:50:10;;;;;;;9.15;6.45;;;16.40;99.90;;;;;;4992829;28;20211;-80
2023/08/30 10:52:38;;;;;;;10.18;6.63;;;16.40;99.90;;;;;;4993293;28;20235;-79
2023/08/30 10:55:10;;;;;;;8.63;6.30;;;16.40;99.90;;;;;;4994873;28;20211;-80
2023/08/30 10:57:41;;;;;;;12.95;6.15;;;16.40;99.90;;;;;;4995011;28;20298;-83
2023/08/30 11:00:13;;;;;;;12.60;6.60;;;16.40;99.90;;;;;;4993761;28;20195;-80
2023/08/30 11:02:45;;;;;;;11.05;7.32;;;16.40;99.90;;;;;;4992412;28;20487;-80
2023/08/30 11:05:15;;;;;;;11.02;7.22;;;16.30;99.90;;;;;;4991212;28;20274;-80
2023/08/30 11:07:42;;;;;;;11.57;7.00;;;16.30;99.90;;;;;;4991125;28;20265;-79
2023/08/30 11:10:09;;;;;;;12.60;7.82;;;16.30;99.90;;;;;;4991192;28;20215;-80
2023/08/30 11:12:36;;;;;;;11.20;8.00;;;16.40;99.90;;;;;;4993497;28;20304;-81
2023/08/30 11:15:04;;;;;;;12.70;7.85;;;16.40;99.90;;;;;;4994642;28;20222;-81
2023/08/30 11:17:34;;;;;;;13.63;8.75;;;16.40;99.90;;;;;;4993327;28;20293;-82
2023/08/30 11:20:12;;;;;;;14.35;9.40;;;16.40;99.90;;;;;;4992476;28;20660;-81
2023/08/30 11:22:42;;;;;;;12.85;9.13;;;16.40;99.90;;;;;;4991234;28;20281;-83
2023/08/30 11:25:10;;;;;;;16.05;9.95;;;16.40;99.90;;;;;;4995011;28;20602;-82
2023/08/30 11:27:38;;;;;;;12.85;8.20;;;16.30;99.90;;;;;;4993209;28;20707;-82
2023/08/30 11:30:08;;;;;;;16.60;9.20;;;16.30;99.90;;;;;;4989182;28;20730;-82
2023/08/30 11:32:36;;;;;;;17.85;10.00;;;16.50;99.90;;;;;;4995859;28;20215;-81
2023/08/30 11:35:03;;;;;;;13.77;9.52;;;16.70;99.90;;;;;;4993520;28;20199;-83
2023/08/30 11:37:31;;;;;;;14.30;8.65;;;17.00;99.90;;;;;;4992270;28;20750;-82
2023/08/30 11:39:59;;;;;;;15.65;8.90;;;17.20;99.90;;;;;;4992084;28;20623;-82
2023/08/30 11:42:26;;;;;;;12.65;9.27;;;17.50;99.90;;;;;;4993793;28;20227;-80
2023/08/30 11:44:54;;;;;;;11.68;8.80;;;17.80;99.90;;;;;;4994555;28;20295;-84
2023/08/30 11:47:31;;;;;;;11.10;8.30;;;18.00;99.90;;;;;;4988403;28;20224;-82
2023/08/30 11:50:03;;;;;;;10.05;7.70;;;18.30;99.90;;;;;;4990818;28;20237;-84
2023/08/30 11:52:31;;;;;;;9.35;7.15;;;18.50;99.90;;;;;;4995520;28;20191;-83
2023/08/30 11:54:58;;;;;;;10.27;7.25;;;18.80;99.90;;;;;;4987791;28;20199;-84
2023/08/30 11:57:43;;;;;;;7.85;6.07;;;18.80;99.90;;;;;;4997162;28;20218;-87
2023/08/30 12:00:11;;;;;;;7.78;6.18;;;19.00;99.90;;;;;;4989364;28;20211;-83
2023/08/30 12:02:39;;;;;;;8.88;6.43;;;19.00;99.90;;;;;;5019498;28;20235;-83
2023/08/30 12:05:12;;;;;;;9.43;5.97;;;19.30;99.90;;;;;;5037146;23;20254;-82
2023/08/30 12:07:42;;;;;;;6.95;5.35;;;19.40;99.90;;;;;;5019935;28;20230;-85
2023/08/30 12:10:11;;;;;;;7.32;5.72;;;19.50;99.90;;;;;;4999286;28;20647;-83
2023/08/30 12:12:44;;;;;;;7.85;5.20;;;19.70;99.90;;;;;;5005139;28;20206;-84
2023/08/30 12:15:11;;;;;;;8.40;4.85;;;19.90;99.90;;;;;;4997827;28;20207;-85
2023/08/30 12:17:42;;;;;;;5.80;4.50;;;19.90;99.90;;;;;;5053387;23;20696;-85
2023/08/30 12:20:20;;;;;;;7.20;3.83;;;20.10;99.90;;;;;;5016327;28;20205;-83
2023/08/30 12:22:51;;;;;;;5.07;3.10;;;20.00;99.90;;;;;;5010011;28;20252;-80
2023/08/30 12:25:36;;;;;;;4.32;2.75;;;20.00;99.90;;;;;;5005261;28;20207;-83
2023/08/30 12:28:04;;;;;;;5.25;3.20;;;20.00;99.90;;;;;;4997931;28;20293;-83
2023/08/30 12:30:31;;;;;;;3.65;2.67;;;20.10;99.90;;;;;;5003912;28;20207;-86
2023/08/30 12:33:04;;;;;;;3.70;2.17;;;20.10;99.90;;;;;;4996615;28;20706;-83
2023/08/30 12:35:40;;;;;;;3.22;2.30;;;20.20;99.90;;;;;;5020588;28;20215;-87
2023/08/30 12:38:09;;;;;;;3.60;2.05;;;20.50;99.90;;;;;;5008476;28;20209;-84
2023/08/30 12:40:36;;;;;;;3.55;1.77;;;20.70;99.90;;;;;;4987987;28;20305;-84
2023/08/30 12:43:05;;;;;;;3.15;1.73;;;20.70;99.90;;;;;;4996795;28;20687;-84
2023/08/30 12:45:32;;;;;;;2.63;1.67;;;20.60;99.90;;;;;;5008468;28;20307;-84
2023/08/30 12:47:59;;;;;;;2.28;1.52;;;20.60;99.90;;;;;;4998735;28;20306;-82
2023/08/30 12:50:28;;;;;;;3.65;1.73;;;20.50;99.90;;;;;;5009896;28;20202;-85
2023/08/30 12:52:55;;;;;;;4.00;1.80;;;20.40;99.90;;;;;;5012745;28;20538;-82